ěÝzenÝ letovÚho provozu ╚eskÚ republiky
Letiste: LKTH Aktualizace: 19.06.2024 03:11:38  UTC
 METAR LKTH 19.06. 03:00 RRB
METAR LKTH 190300Z AUTO 19004KT 130V290 CAVOK 21/16 Q1014=